Owensburg, Indiana
Current Conditions -  °F | °C
As of 6:53 AM on Saturday 20 Dec 2014 (Local Time) from KBMG Reporting Station
Overcast Overcast  
Wind Chill: -3°   Ceiling: 600
Heat Index: -3°   Visibility: 7mi
Dew Point: -4°   Wind: 0mph
Humidity: 92%   Direction: NA
Pressure: 30.27"   Gusts: NA
Location:  38.92°N, 86.73°W
Report Text: KBMG 201153Z 00000KT 7SM BKN006 OVC046 M03/M04 A3027 RMK AO2 SNE08 SLP260 P0000 60002 70002 T10281039 11011 21028 53005
Loading
Personal Weather Stations






























Interactive Weather Map New forecast layout! Learn more

10-Day Weather Forecast

Advertisements
Track Severe Weather on mobile